createdAt,value
2022-12-23T00:00:29.144Z,0.00
2022-12-23T00:01:29.301Z,0.00
2022-12-23T00:02:29.160Z,0.00
2022-12-23T00:03:29.318Z,0.00
2022-12-23T00:04:29.095Z,0.00
2022-12-23T00:05:34.143Z,0.00
2022-12-23T00:06:30.074Z,0.00
2022-12-23T00:07:29.063Z,0.00
2022-12-23T00:08:29.054Z,0.00
2022-12-23T00:09:29.042Z,0.00
2022-12-23T00:10:29.059Z,0.00
2022-12-23T00:11:29.093Z,0.00
2022-12-23T00:12:29.012Z,0.00
2022-12-23T00:13:29.012Z,0.00
2022-12-23T00:14:28.992Z,0.00
2022-12-23T00:15:29.005Z,0.00
2022-12-23T00:16:29.057Z,0.00
2022-12-23T00:17:28.967Z,0.00
2022-12-23T00:18:28.945Z,0.00
2022-12-23T00:19:28.934Z,0.00
2022-12-23T00:20:28.944Z,0.00
2022-12-23T00:21:28.915Z,0.00
2022-12-23T00:22:28.926Z,0.00
2022-12-23T00:23:28.904Z,0.00
2022-12-23T00:24:28.886Z,0.00
2022-12-23T00:25:28.873Z,0.00
2022-12-23T00:26:28.882Z,0.00
2022-12-23T00:27:32.962Z,0.00
2022-12-23T00:28:29.843Z,0.00
2022-12-23T00:29:28.826Z,0.00
2022-12-23T00:30:28.821Z,0.00
2022-12-23T00:31:28.841Z,0.00
2022-12-23T00:32:28.816Z,0.00
2022-12-23T00:33:28.807Z,0.00
2022-12-23T00:34:28.776Z,0.00
2022-12-23T00:35:28.764Z,0.00
2022-12-23T00:36:28.847Z,0.00
2022-12-23T00:37:28.737Z,0.00
2022-12-23T00:38:28.758Z,0.00
2022-12-23T00:39:28.737Z,0.00
2022-12-23T00:40:28.707Z,0.00
2022-12-23T00:41:28.707Z,0.00
2022-12-23T00:42:28.687Z,0.00
2022-12-23T00:43:28.707Z,0.00
2022-12-23T00:44:28.693Z,0.00
2022-12-23T00:45:28.669Z,0.00
2022-12-23T00:46:28.682Z,0.00
2022-12-23T00:47:28.635Z,0.00
2022-12-23T00:48:28.627Z,0.00
2022-12-23T00:49:28.610Z,0.00
2022-12-23T00:50:28.631Z,0.00
2022-12-23T00:51:28.593Z,0.00
2022-12-23T00:52:28.583Z,0.00
2022-12-23T00:53:28.592Z,0.00
2022-12-23T00:54:28.558Z,0.00
2022-12-23T00:55:28.568Z,0.00
2022-12-23T00:56:28.540Z,0.00
2022-12-23T00:57:28.545Z,0.00
2022-12-23T00:58:28.517Z,0.00
2022-12-23T00:59:28.510Z,0.00
2022-12-23T01:00:28.501Z,0.00
2022-12-23T01:01:28.637Z,0.00
2022-12-23T01:02:28.599Z,0.00
2022-12-23T01:03:28.487Z,0.00
2022-12-23T01:04:28.448Z,0.00
2022-12-23T01:05:28.439Z,0.00
2022-12-23T01:06:28.461Z,0.00
2022-12-23T01:07:28.415Z,0.00
2022-12-23T01:08:28.431Z,0.00
2022-12-23T01:09:28.418Z,0.00
2022-12-23T01:10:28.389Z,0.00
2022-12-23T01:11:28.380Z,0.00
2022-12-23T01:12:28.366Z,0.00
2022-12-23T01:13:28.387Z,0.00
2022-12-23T01:14:28.341Z,0.00
2022-12-23T01:15:28.330Z,0.00
2022-12-23T01:16:28.370Z,0.00
2022-12-23T01:17:28.310Z,0.00
2022-12-23T01:18:28.299Z,0.00
2022-12-23T01:19:28.294Z,0.00
2022-12-23T01:20:28.288Z,0.00
2022-12-23T01:21:28.267Z,0.00
2022-12-23T01:22:28.280Z,0.00
2022-12-23T01:23:28.250Z,0.00
2022-12-23T01:24:28.247Z,0.00
2022-12-23T01:25:28.241Z,0.00
2022-12-23T01:26:28.223Z,0.00
2022-12-23T01:27:28.201Z,0.00
2022-12-23T01:28:28.200Z,0.00
2022-12-23T01:29:28.202Z,0.00
2022-12-23T01:30:28.174Z,0.00
2022-12-23T01:31:28.181Z,0.00
2022-12-23T01:32:28.150Z,0.00
2022-12-23T01:33:28.140Z,0.00
2022-12-23T01:34:34.283Z,0.00
2022-12-23T01:35:29.172Z,0.00
2022-12-23T01:36:28.103Z,0.00
2022-12-23T01:37:28.095Z,0.00
2022-12-23T01:38:28.081Z,0.00
2022-12-23T01:39:28.078Z,0.00
2022-12-23T01:40:28.096Z,0.00
2022-12-23T01:41:28.061Z,0.00
2022-12-23T01:42:28.043Z,0.00
2022-12-23T01:43:28.034Z,0.00
2022-12-23T01:44:28.014Z,0.00
2022-12-23T01:45:28.118Z,0.00
2022-12-23T01:46:28.053Z,0.00
2022-12-23T01:47:27.988Z,0.00
2022-12-23T01:48:27.972Z,0.00
2022-12-23T01:49:27.967Z,0.00
2022-12-23T01:50:27.952Z,0.00
2022-12-23T01:51:27.962Z,0.00
2022-12-23T01:52:27.955Z,0.00
2022-12-23T01:53:27.927Z,0.00
2022-12-23T01:54:27.923Z,0.00
2022-12-23T01:55:27.914Z,0.00
2022-12-23T01:56:27.916Z,0.00
2022-12-23T01:57:27.881Z,0.00
2022-12-23T01:58:27.872Z,0.00
2022-12-23T01:59:27.855Z,0.00
2022-12-23T02:00:27.847Z,0.00
2022-12-23T02:01:27.972Z,0.00
2022-12-23T02:02:27.953Z,0.00
2022-12-23T02:03:27.879Z,0.00
2022-12-23T02:04:27.810Z,0.00
2022-12-23T02:05:27.795Z,0.00
2022-12-23T02:06:27.784Z,0.00
2022-12-23T02:07:27.785Z,0.00
2022-12-23T02:08:27.755Z,0.00
2022-12-23T02:09:27.747Z,0.00
2022-12-23T02:10:27.737Z,0.00
2022-12-23T02:11:27.723Z,0.00
2022-12-23T02:12:27.744Z,0.00
2022-12-23T02:13:27.707Z,0.00
2022-12-23T02:14:27.696Z,0.00
2022-12-23T02:15:27.689Z,0.00
2022-12-23T02:16:27.711Z,0.00
2022-12-23T02:17:27.689Z,0.00
2022-12-23T02:18:27.655Z,0.00
2022-12-23T02:19:27.638Z,0.00
2022-12-23T02:20:27.636Z,0.00
2022-12-23T02:21:27.614Z,0.00
2022-12-23T02:22:27.636Z,0.00
2022-12-23T02:23:27.655Z,0.00
2022-12-23T02:24:27.587Z,0.00
2022-12-23T02:25:27.576Z,0.00
2022-12-23T02:26:27.568Z,0.00
2022-12-23T02:27:27.583Z,0.00
2022-12-23T02:28:27.580Z,0.00
2022-12-23T02:29:27.541Z,0.00
2022-12-23T02:30:27.547Z,0.00
2022-12-23T02:31:27.606Z,0.00
2022-12-23T02:32:27.501Z,0.00
2022-12-23T02:33:27.496Z,0.00
2022-12-23T02:34:27.505Z,0.00
2022-12-23T02:35:27.467Z,0.00
2022-12-23T02:36:27.459Z,0.00
2022-12-23T02:37:27.450Z,0.00
2022-12-23T02:38:27.436Z,0.00
2022-12-23T02:39:27.447Z,0.00
2022-12-23T02:40:27.418Z,0.00
2022-12-23T02:41:27.407Z,0.00
2022-12-23T02:42:27.397Z,0.00
2022-12-23T02:43:27.395Z,0.00
2022-12-23T02:44:27.396Z,0.00
2022-12-23T02:45:27.366Z,0.00
2022-12-23T02:46:27.477Z,0.00
2022-12-23T02:47:27.344Z,0.00
2022-12-23T02:48:27.338Z,0.00
2022-12-23T02:49:27.316Z,0.00
2022-12-23T02:50:27.315Z,0.00
2022-12-23T02:51:27.297Z,0.00
2022-12-23T02:52:27.312Z,0.00
2022-12-23T02:53:27.284Z,0.00
2022-12-23T02:54:27.268Z,0.00
2022-12-23T02:55:27.255Z,0.00
2022-12-23T02:56:27.262Z,0.00
2022-12-23T02:57:27.255Z,0.00
2022-12-23T02:58:27.219Z,0.00
2022-12-23T02:59:27.234Z,0.00
2022-12-23T03:00:27.214Z,0.00
2022-12-23T03:01:27.323Z,0.00
2022-12-23T03:02:27.360Z,0.00
2022-12-23T03:03:27.233Z,0.00
2022-12-23T03:04:27.155Z,0.00
2022-12-23T03:05:27.149Z,0.00
2022-12-23T03:06:27.140Z,0.00
2022-12-23T03:07:27.128Z,0.00
2022-12-23T03:08:27.129Z,0.00
2022-12-23T03:09:27.108Z,0.00
2022-12-23T03:10:27.097Z,0.00
2022-12-23T03:11:27.100Z,0.00
2022-12-23T03:12:27.083Z,0.00
2022-12-23T03:13:27.113Z,0.00
2022-12-23T03:14:27.059Z,0.00
2022-12-23T03:15:27.081Z,0.00
2022-12-23T03:16:27.084Z,0.00
2022-12-23T03:17:27.008Z,0.00
2022-12-23T03:18:26.999Z,0.00
2022-12-23T03:19:27.026Z,0.00
2022-12-23T03:20:27.015Z,0.00
2022-12-23T03:21:26.964Z,0.00
2022-12-23T03:22:26.967Z,0.00
2022-12-23T03:23:26.961Z,0.00
2022-12-23T03:24:26.965Z,0.00
2022-12-23T03:25:26.922Z,0.00
2022-12-23T03:26:26.919Z,0.00
2022-12-23T03:27:26.907Z,0.00
2022-12-23T03:28:26.893Z,0.00
2022-12-23T03:29:26.928Z,0.00
2022-12-23T03:30:26.898Z,0.00
2022-12-23T03:31:26.931Z,0.00
2022-12-23T03:32:26.860Z,0.00
2022-12-23T03:33:26.848Z,0.00
2022-12-23T03:34:26.832Z,0.00
2022-12-23T03:35:26.839Z,0.00
2022-12-23T03:36:26.802Z,0.00
2022-12-23T03:37:26.801Z,0.00
2022-12-23T03:38:26.792Z,0.00
2022-12-23T03:39:26.779Z,0.00
2022-12-23T03:40:26.791Z,0.00
2022-12-23T03:41:26.754Z,0.00
2022-12-23T03:42:26.760Z,0.00
2022-12-23T03:43:26.738Z,0.00
2022-12-23T03:44:26.723Z,0.00
2022-12-23T03:45:42.162Z,0.00
2022-12-23T03:46:27.728Z,0.00
2022-12-23T03:47:26.689Z,0.00
2022-12-23T03:48:26.677Z,0.00
2022-12-23T03:49:26.663Z,0.00
2022-12-23T03:50:26.677Z,0.00
2022-12-23T03:51:26.645Z,0.00
2022-12-23T03:52:26.643Z,0.00
2022-12-23T03:53:26.633Z,0.00
2022-12-23T03:54:26.621Z,0.00
2022-12-23T03:55:26.609Z,0.00
2022-12-23T03:56:26.618Z,0.00
2022-12-23T03:57:26.586Z,0.00
2022-12-23T03:58:26.569Z,0.00
2022-12-23T03:59:26.555Z,0.00
2022-12-23T04:00:26.547Z,0.00
2022-12-23T04:01:26.693Z,0.00
2022-12-23T04:02:26.633Z,0.00
2022-12-23T04:03:26.588Z,0.00
2022-12-23T04:04:26.507Z,0.00
2022-12-23T04:05:26.498Z,0.00
2022-12-23T04:06:26.511Z,0.00
2022-12-23T04:07:26.483Z,0.00
2022-12-23T04:08:26.469Z,0.00
2022-12-23T04:09:26.448Z,0.00
2022-12-23T04:10:26.435Z,0.00
2022-12-23T04:11:26.462Z,0.00
2022-12-23T04:12:26.441Z,0.00
2022-12-23T04:13:26.428Z,0.00
2022-12-23T04:14:26.404Z,0.00
2022-12-23T04:15:26.393Z,0.00
2022-12-23T04:16:26.437Z,0.00
2022-12-23T04:17:26.373Z,0.00
2022-12-23T04:18:26.355Z,0.00
2022-12-23T04:19:26.348Z,0.00
2022-12-23T04:20:26.327Z,0.00
2022-12-23T04:21:26.326Z,0.00
2022-12-23T04:22:26.339Z,0.00
2022-12-23T04:23:26.337Z,0.00
2022-12-23T04:24:26.288Z,0.00
2022-12-23T04:25:26.276Z,0.00
2022-12-23T04:26:26.274Z,0.00
2022-12-23T04:27:26.283Z,0.00
2022-12-23T04:28:26.249Z,0.00
2022-12-23T04:29:26.256Z,0.00
2022-12-23T04:30:31.601Z,0.00
2022-12-23T04:31:27.292Z,0.00
2022-12-23T04:32:26.221Z,0.00
2022-12-23T04:33:26.229Z,0.00
2022-12-23T04:34:26.177Z,0.00
2022-12-23T04:35:26.172Z,0.00
2022-12-23T04:36:26.158Z,0.00
2022-12-23T04:37:26.177Z,0.00
2022-12-23T04:38:26.145Z,0.00
2022-12-23T04:39:26.134Z,0.00
2022-12-23T04:40:26.114Z,0.00
2022-12-23T04:41:26.116Z,0.00
2022-12-23T04:42:26.096Z,0.00
2022-12-23T04:43:26.117Z,0.00
2022-12-23T04:44:26.088Z,0.00
2022-12-23T04:45:26.070Z,0.00
2022-12-23T04:46:26.084Z,0.00
2022-12-23T04:47:26.039Z,0.00
2022-12-23T04:48:26.029Z,0.00
2022-12-23T04:49:26.044Z,0.00
2022-12-23T04:50:26.000Z,0.00
2022-12-23T04:51:26.002Z,0.00
2022-12-23T04:52:25.988Z,0.00
2022-12-23T04:53:25.992Z,0.00
2022-12-23T04:54:25.965Z,0.00
2022-12-23T04:55:25.979Z,0.00
2022-12-23T04:56:25.968Z,0.00
2022-12-23T04:57:25.947Z,0.00
2022-12-23T04:58:25.929Z,0.00
2022-12-23T04:59:25.909Z,0.00
2022-12-23T05:00:25.896Z,0.00
2022-12-23T05:01:26.039Z,0.00
2022-12-23T05:02:25.946Z,0.00
2022-12-23T05:03:25.951Z,0.00
2022-12-23T05:04:25.932Z,0.00
2022-12-23T05:05:25.889Z,0.00
2022-12-23T05:06:25.854Z,0.00
2022-12-23T05:07:25.830Z,0.00
2022-12-23T05:08:25.813Z,0.00
2022-12-23T05:09:25.805Z,0.00
2022-12-23T05:10:25.797Z,0.00
2022-12-23T05:11:25.823Z,0.00
2022-12-23T05:12:25.771Z,0.00
2022-12-23T05:13:25.777Z,0.00
2022-12-23T05:14:25.749Z,0.00
2022-12-23T05:15:25.739Z,0.00
2022-12-23T05:16:25.867Z,0.00
2022-12-23T05:17:25.724Z,0.00
2022-12-23T05:18:25.723Z,0.00
2022-12-23T05:19:25.701Z,0.00
2022-12-23T05:20:25.689Z,0.00
2022-12-23T05:21:25.664Z,0.00
2022-12-23T05:22:25.684Z,0.00
2022-12-23T05:23:25.684Z,0.00
2022-12-23T05:24:25.643Z,0.00
2022-12-23T05:25:25.642Z,0.00
2022-12-23T05:26:25.624Z,0.00
2022-12-23T05:27:25.605Z,0.00
2022-12-23T05:28:25.614Z,0.00
2022-12-23T05:29:25.588Z,0.00
2022-12-23T05:30:25.576Z,0.00
2022-12-23T05:31:25.604Z,0.00
2022-12-23T05:32:25.566Z,0.00
2022-12-23T05:33:25.616Z,0.00
2022-12-23T05:34:25.534Z,0.00
2022-12-23T05:35:25.587Z,0.00
2022-12-23T05:36:25.537Z,0.00
2022-12-23T05:37:25.538Z,0.00
2022-12-23T05:38:25.491Z,0.00
2022-12-23T05:39:25.519Z,0.00
2022-12-23T05:40:29.352Z,0.00
2022-12-23T05:41:26.460Z,0.00
2022-12-23T05:42:25.443Z,0.00
2022-12-23T05:43:25.446Z,0.00
2022-12-23T05:44:25.447Z,0.00
2022-12-23T05:45:25.533Z,0.00
2022-12-23T05:46:26.969Z,0.00
2022-12-23T05:47:25.398Z,0.00
2022-12-23T05:48:25.374Z,0.00
2022-12-23T05:49:25.381Z,0.00
2022-12-23T05:50:25.375Z,0.00
2022-12-23T05:51:25.400Z,0.00
2022-12-23T05:52:25.342Z,0.00
2022-12-23T05:53:25.344Z,0.00
2022-12-23T05:54:25.321Z,0.00
2022-12-23T05:55:25.360Z,0.00
2022-12-23T05:56:25.314Z,0.00
2022-12-23T05:57:25.285Z,0.00
2022-12-23T05:58:25.297Z,0.00
2022-12-23T05:59:30.544Z,0.00
2022-12-23T06:00:26.275Z,0.00
2022-12-23T06:01:25.241Z,0.00
2022-12-23T06:02:25.369Z,0.00
2022-12-23T06:03:25.541Z,0.00
2022-12-23T06:04:25.264Z,0.00
2022-12-23T06:05:25.197Z,0.00
2022-12-23T06:06:25.228Z,0.00
2022-12-23T06:07:25.177Z,0.00
2022-12-23T06:08:25.182Z,0.00
2022-12-23T06:09:25.159Z,0.00
2022-12-23T06:10:25.145Z,0.00
2022-12-23T06:11:25.158Z,0.00
2022-12-23T06:12:25.119Z,0.00
2022-12-23T06:13:25.121Z,0.00
2022-12-23T06:14:28.738Z,0.00
2022-12-23T06:15:25.098Z,0.00
2022-12-23T06:16:25.161Z,0.00
2022-12-23T06:17:25.074Z,0.00
2022-12-23T06:18:25.102Z,0.00
2022-12-23T06:19:25.081Z,0.00
2022-12-23T06:20:25.045Z,0.00
2022-12-23T06:21:25.025Z,0.00
2022-12-23T06:22:25.047Z,0.00
2022-12-23T06:23:25.012Z,0.00
2022-12-23T06:24:25.015Z,0.00
2022-12-23T06:25:24.992Z,0.00
2022-12-23T06:26:24.970Z,0.00
2022-12-23T06:27:25.000Z,0.00
2022-12-23T06:28:24.966Z,0.00
2022-12-23T06:29:24.966Z,0.00
2022-12-23T06:30:24.923Z,0.00
2022-12-23T06:31:24.974Z,0.00
2022-12-23T06:32:24.928Z,0.00
2022-12-23T06:33:24.932Z,0.00
2022-12-23T06:34:24.892Z,0.00
2022-12-23T06:35:24.883Z,0.00
2022-12-23T06:36:24.865Z,0.00
2022-12-23T06:37:24.878Z,0.00
2022-12-23T06:38:24.837Z,0.00
2022-12-23T06:39:24.821Z,0.00
2022-12-23T06:40:24.821Z,0.00
2022-12-23T06:41:24.807Z,0.00
2022-12-23T06:42:24.791Z,0.00
2022-12-23T06:43:24.831Z,0.00
2022-12-23T06:44:24.773Z,0.00
2022-12-23T06:45:24.767Z,0.00
2022-12-23T06:46:24.818Z,0.00
2022-12-23T06:47:24.750Z,0.00
2022-12-23T06:48:24.762Z,0.00
2022-12-23T06:49:24.719Z,0.00
2022-12-23T06:50:24.711Z,0.00
2022-12-23T06:51:24.704Z,0.00
2022-12-23T06:52:24.681Z,0.00
2022-12-23T06:53:24.714Z,0.00
2022-12-23T06:54:24.670Z,0.00
2022-12-23T06:55:24.660Z,0.00
2022-12-23T06:56:24.644Z,0.00
2022-12-23T06:57:24.644Z,0.00
2022-12-23T06:58:24.630Z,0.00
2022-12-23T06:59:24.647Z,0.00
2022-12-23T07:00:24.600Z,0.00
2022-12-23T07:01:24.679Z,0.00
2022-12-23T07:02:24.716Z,0.00
2022-12-23T07:03:24.680Z,0.00
2022-12-23T07:04:24.601Z,0.00
2022-12-23T07:05:24.549Z,0.00
2022-12-23T07:06:24.540Z,0.00
2022-12-23T07:07:24.530Z,0.00
2022-12-23T07:08:24.510Z,0.00
2022-12-23T07:09:24.518Z,0.00
2022-12-23T07:10:24.509Z,0.00
2022-12-23T07:11:24.489Z,0.00
2022-12-23T07:12:24.497Z,0.00
2022-12-23T07:13:24.467Z,0.00
2022-12-23T07:14:24.447Z,0.00
2022-12-23T07:15:24.474Z,0.00
2022-12-23T07:16:24.449Z,0.00
2022-12-23T07:17:24.419Z,0.00
2022-12-23T07:18:24.401Z,0.00
2022-12-23T07:19:24.397Z,0.00
2022-12-23T07:20:24.384Z,0.00
2022-12-23T07:21:28.867Z,5.62
2022-12-23T07:22:25.360Z,5.62
2022-12-23T07:23:24.355Z,5.62
2022-12-23T07:24:24.334Z,5.62
2022-12-23T07:25:24.339Z,5.62
2022-12-23T07:26:24.334Z,5.62
2022-12-23T07:27:24.316Z,5.62
2022-12-23T07:28:24.302Z,5.62
2022-12-23T07:29:24.291Z,5.62
2022-12-23T07:30:24.272Z,5.62
2022-12-23T07:31:24.335Z,5.62
2022-12-23T07:32:24.273Z,5.62
2022-12-23T07:33:24.247Z,5.62
2022-12-23T07:34:24.231Z,5.62
2022-12-23T07:35:24.228Z,5.62
2022-12-23T07:36:24.225Z,11.25
2022-12-23T07:37:24.195Z,11.25
2022-12-23T07:38:24.183Z,11.25
2022-12-23T07:39:24.188Z,11.25
2022-12-23T07:40:24.168Z,11.25
2022-12-23T07:41:24.190Z,5.62
2022-12-23T07:42:44.142Z,5.62
2022-12-23T07:43:25.134Z,11.25
2022-12-23T07:44:24.133Z,11.25
2022-12-23T07:45:24.102Z,11.25
2022-12-23T07:46:24.133Z,16.88
2022-12-23T07:47:24.085Z,16.88
2022-12-23T07:48:24.094Z,16.88
2022-12-23T07:49:24.066Z,22.50
2022-12-23T07:50:24.054Z,22.50
2022-12-23T07:51:24.045Z,22.50
2022-12-23T07:52:24.032Z,22.50
2022-12-23T07:53:24.053Z,22.50
2022-12-23T07:54:24.013Z,28.12
2022-12-23T07:55:24.000Z,28.12
2022-12-23T07:56:23.991Z,28.12
2022-12-23T07:57:23.972Z,28.12
2022-12-23T07:58:23.972Z,33.75
2022-12-23T07:59:23.975Z,33.75
2022-12-23T08:00:23.947Z,33.75
2022-12-23T08:01:23.997Z,33.75
2022-12-23T08:02:24.059Z,33.75
2022-12-23T08:03:24.046Z,39.38
2022-12-23T08:04:23.958Z,39.38
2022-12-23T08:05:23.965Z,45.00
2022-12-23T08:06:23.884Z,45.00
2022-12-23T08:07:23.881Z,50.62
2022-12-23T08:08:23.870Z,56.25
2022-12-23T08:09:23.874Z,61.88
2022-12-23T08:10:23.826Z,61.88
2022-12-23T08:11:23.833Z,67.50
2022-12-23T08:12:23.805Z,67.50
2022-12-23T08:13:23.807Z,73.12
2022-12-23T08:14:23.786Z,73.12
2022-12-23T08:15:23.808Z,73.12
2022-12-23T08:16:23.821Z,73.12
2022-12-23T08:17:23.844Z,73.12
2022-12-23T08:18:23.750Z,67.50
2022-12-23T08:19:23.737Z,67.50
2022-12-23T08:20:23.725Z,67.50
2022-12-23T08:21:23.762Z,67.50
2022-12-23T08:22:23.702Z,67.50
2022-12-23T08:23:25.061Z,73.12
2022-12-23T08:24:23.678Z,73.12
2022-12-23T08:25:23.669Z,67.50
2022-12-23T08:26:23.679Z,67.50
2022-12-23T08:27:23.647Z,67.50
2022-12-23T08:28:23.637Z,67.50
2022-12-23T08:29:23.626Z,67.50
2022-12-23T08:30:23.633Z,73.12
2022-12-23T08:31:23.742Z,73.12
2022-12-23T08:32:23.588Z,73.12
2022-12-23T08:33:23.596Z,73.12
2022-12-23T08:34:23.575Z,67.50
2022-12-23T08:35:23.564Z,67.50
2022-12-23T08:36:23.841Z,61.88
2022-12-23T08:37:23.537Z,61.88
2022-12-23T08:38:23.527Z,61.88
2022-12-23T08:39:23.520Z,61.88
2022-12-23T08:40:23.499Z,61.88
2022-12-23T08:41:23.497Z,61.88
2022-12-23T08:42:23.506Z,61.88
2022-12-23T08:43:23.495Z,61.88
2022-12-23T08:44:23.464Z,61.88
2022-12-23T08:45:23.470Z,61.88
2022-12-23T08:46:23.600Z,67.50
2022-12-23T08:47:23.480Z,61.88
2022-12-23T08:48:23.419Z,61.88
2022-12-23T08:49:23.411Z,61.88
2022-12-23T08:50:23.467Z,61.88
2022-12-23T08:51:23.408Z,61.88
2022-12-23T08:52:23.403Z,61.88
2022-12-23T08:53:23.411Z,67.50
2022-12-23T08:54:23.359Z,78.75
2022-12-23T08:55:23.341Z,78.75
2022-12-23T08:56:23.329Z,78.75
2022-12-23T08:57:23.352Z,78.75
2022-12-23T08:58:23.305Z,84.38
2022-12-23T08:59:23.345Z,84.38
2022-12-23T09:00:23.293Z,95.62
2022-12-23T09:01:23.341Z,90.00
2022-12-23T09:02:23.407Z,101.25
2022-12-23T09:03:23.370Z,106.88
2022-12-23T09:04:23.266Z,118.12
2022-12-23T09:05:23.230Z,112.50
2022-12-23T09:06:28.612Z,112.50
2022-12-23T09:07:24.229Z,118.12
2022-12-23T09:08:23.200Z,106.88
2022-12-23T09:09:23.232Z,101.25
2022-12-23T09:10:23.309Z,95.62
2022-12-23T09:11:23.169Z,101.25
2022-12-23T09:12:23.161Z,106.88
2022-12-23T09:13:32.765Z,106.88
2022-12-23T09:14:24.170Z,101.25
2022-12-23T09:15:23.121Z,101.25
2022-12-23T09:16:23.177Z,90.00
2022-12-23T09:17:23.110Z,101.25
2022-12-23T09:18:23.121Z,95.62
2022-12-23T09:19:23.099Z,101.25
2022-12-23T09:20:23.087Z,78.75
2022-12-23T09:21:23.077Z,73.12
2022-12-23T09:22:23.052Z,73.12
2022-12-23T09:23:23.045Z,73.12
2022-12-23T09:24:23.028Z,73.12
2022-12-23T09:25:23.024Z,73.12
2022-12-23T09:26:23.009Z,73.12
2022-12-23T09:27:23.015Z,73.12
2022-12-23T09:28:22.980Z,73.12
2022-12-23T09:29:22.986Z,78.75
2022-12-23T09:30:22.960Z,84.38
2022-12-23T09:31:23.162Z,95.62
2022-12-23T09:32:22.933Z,101.25
2022-12-23T09:33:22.936Z,101.25
2022-12-23T09:34:22.918Z,106.88
2022-12-23T09:35:22.904Z,106.88
2022-12-23T09:36:22.923Z,95.62
2022-12-23T09:37:22.880Z,84.38
2022-12-23T09:38:22.885Z,78.75
2022-12-23T09:39:22.857Z,78.75
2022-12-23T09:40:22.848Z,78.75
2022-12-23T09:41:22.881Z,90.00
2022-12-23T09:42:22.846Z,101.25
2022-12-23T09:43:22.836Z,101.25
2022-12-23T09:44:22.820Z,101.25
2022-12-23T09:45:22.787Z,106.88
2022-12-23T09:46:22.852Z,112.50
2022-12-23T09:47:22.791Z,112.50
2022-12-23T09:48:22.799Z,112.50
2022-12-23T09:49:22.768Z,112.50
2022-12-23T09:50:22.743Z,123.75
2022-12-23T09:51:22.732Z,118.12
2022-12-23T09:52:22.709Z,112.50
2022-12-23T09:53:22.705Z,106.88
2022-12-23T09:54:22.747Z,106.88
2022-12-23T09:55:22.676Z,101.25
2022-12-23T09:56:22.673Z,101.25
2022-12-23T09:57:22.657Z,101.25
2022-12-23T09:58:22.668Z,106.88
2022-12-23T09:59:22.657Z,106.88
2022-12-23T10:00:22.630Z,106.88
2022-12-23T10:01:22.676Z,106.88
2022-12-23T10:02:22.852Z,106.88
2022-12-23T10:03:22.723Z,106.88
2022-12-23T10:04:22.689Z,106.88
2022-12-23T10:05:22.579Z,112.50
2022-12-23T10:06:22.560Z,112.50
2022-12-23T10:07:22.552Z,112.50
2022-12-23T10:08:22.539Z,106.88
2022-12-23T10:09:22.529Z,106.88
2022-12-23T10:10:22.544Z,101.25
2022-12-23T10:11:22.530Z,90.00
2022-12-23T10:12:27.620Z,90.00
2022-12-23T10:13:23.489Z,95.62
2022-12-23T10:14:22.481Z,101.25
2022-12-23T10:15:22.468Z,106.88
2022-12-23T10:16:22.529Z,106.88
2022-12-23T10:17:22.470Z,106.88
2022-12-23T10:18:22.437Z,101.25
2022-12-23T10:19:22.419Z,95.62
2022-12-23T10:20:22.411Z,84.38
2022-12-23T10:21:22.400Z,78.75
2022-12-23T10:22:22.410Z,73.12
2022-12-23T10:23:22.384Z,67.50
2022-12-23T10:24:22.373Z,67.50
2022-12-23T10:25:22.364Z,67.50
2022-12-23T10:26:22.370Z,73.12
2022-12-23T10:27:22.336Z,78.75
2022-12-23T10:28:22.329Z,78.75
2022-12-23T10:29:22.310Z,78.75
2022-12-23T10:31:39.978Z,90.00
2022-12-23T10:32:23.370Z,90.00
2022-12-23T10:33:22.274Z,90.00
2022-12-23T10:34:22.265Z,90.00
2022-12-23T10:35:22.256Z,84.38
2022-12-23T10:36:22.331Z,78.75
2022-12-23T10:37:22.257Z,67.50
2022-12-23T10:38:22.212Z,67.50
2022-12-23T10:39:22.211Z,67.50
2022-12-23T10:40:22.214Z,67.50
2022-12-23T10:41:22.183Z,73.12
2022-12-23T10:42:22.179Z,73.12
2022-12-23T10:43:22.179Z,78.75
2022-12-23T10:44:22.154Z,78.75
2022-12-23T10:45:22.170Z,78.75
2022-12-23T10:46:22.162Z,78.75
2022-12-23T10:47:22.135Z,84.38
2022-12-23T10:48:22.140Z,84.38
2022-12-23T10:49:22.106Z,90.00
2022-12-23T10:50:22.112Z,95.62
2022-12-23T10:51:22.080Z,95.62
2022-12-23T10:52:22.073Z,95.62
2022-12-23T10:53:22.128Z,101.25
2022-12-23T10:54:22.044Z,106.88
2022-12-23T10:55:22.058Z,106.88
2022-12-23T10:56:22.027Z,112.50
2022-12-23T10:57:22.013Z,112.50
2022-12-23T10:58:22.013Z,106.88
2022-12-23T10:59:21.995Z,106.88
2022-12-23T11:00:21.995Z,112.50
2022-12-23T11:01:27.128Z,112.50
2022-12-23T11:02:23.189Z,106.88
2022-12-23T11:03:22.054Z,106.88
2022-12-23T11:04:21.955Z,106.88
2022-12-23T11:05:21.939Z,106.88
2022-12-23T11:06:21.932Z,112.50
2022-12-23T11:08:22.934Z,135.00
2022-12-23T11:09:21.881Z,140.62
2022-12-23T11:10:21.882Z,140.62
2022-12-23T11:11:21.858Z,123.75
2022-12-23T11:12:21.846Z,118.12
2022-12-23T11:13:21.835Z,106.88
2022-12-23T11:14:21.854Z,106.88
2022-12-23T11:15:21.817Z,101.25
2022-12-23T11:16:21.872Z,95.62
2022-12-23T11:17:21.807Z,90.00
2022-12-23T11:18:21.818Z,84.38
2022-12-23T11:19:21.768Z,84.38
2022-12-23T11:20:21.763Z,84.38
2022-12-23T11:21:21.772Z,84.38
2022-12-23T11:22:21.739Z,84.38
2022-12-23T11:23:21.757Z,78.75
2022-12-23T11:24:21.718Z,73.12
2022-12-23T11:25:21.710Z,67.50
2022-12-23T11:26:21.700Z,67.50
2022-12-23T11:27:21.692Z,67.50
2022-12-23T11:28:21.706Z,67.50
2022-12-23T11:29:21.662Z,67.50
2022-12-23T11:30:21.672Z,67.50
2022-12-23T11:31:21.720Z,61.88
2022-12-23T11:32:21.640Z,61.88
2022-12-23T11:33:21.624Z,61.88
2022-12-23T11:34:21.636Z,61.88
2022-12-23T11:35:21.691Z,67.50
2022-12-23T11:36:21.597Z,73.12
2022-12-23T11:37:21.580Z,78.75
2022-12-23T11:38:21.591Z,84.38
2022-12-23T11:39:21.563Z,90.00
2022-12-23T11:40:21.557Z,90.00
2022-12-23T11:41:21.535Z,90.00
2022-12-23T11:42:21.528Z,90.00
2022-12-23T11:43:21.537Z,90.00
2022-12-23T11:44:21.510Z,90.00
2022-12-23T11:45:21.499Z,84.38
2022-12-23T11:46:21.529Z,78.75
2022-12-23T11:47:21.471Z,73.12
2022-12-23T11:48:21.488Z,73.12
2022-12-23T11:49:21.442Z,78.75
2022-12-23T11:50:21.441Z,78.75
2022-12-23T11:51:21.420Z,90.00
2022-12-23T11:52:21.452Z,90.00
2022-12-23T11:53:21.417Z,84.38
2022-12-23T11:54:21.399Z,84.38
2022-12-23T11:55:21.382Z,78.75
2022-12-23T11:56:21.403Z,84.38
2022-12-23T11:57:21.366Z,78.75
2022-12-23T11:58:21.398Z,78.75
2022-12-23T11:59:21.361Z,84.38
2022-12-23T12:00:21.358Z,78.75
2022-12-23T12:01:21.340Z,73.12
2022-12-23T12:02:21.357Z,78.75
2022-12-23T12:03:21.389Z,78.75
2022-12-23T12:04:21.310Z,78.75
2022-12-23T12:05:21.287Z,78.75
2022-12-23T12:06:21.262Z,84.38
2022-12-23T12:07:21.253Z,95.62
2022-12-23T12:08:21.258Z,106.88
2022-12-23T12:09:21.223Z,118.12
2022-12-23T12:10:21.254Z,112.50
2022-12-23T12:11:21.204Z,112.50
2022-12-23T12:12:21.243Z,101.25
2022-12-23T12:13:21.191Z,95.62
2022-12-23T12:14:21.192Z,84.38
2022-12-23T12:15:21.165Z,78.75
2022-12-23T12:16:21.194Z,73.12
2022-12-23T12:17:21.161Z,73.12
2022-12-23T12:18:21.145Z,67.50
2022-12-23T12:19:21.124Z,61.88
2022-12-23T12:20:21.130Z,61.88
2022-12-23T12:21:21.102Z,56.25
2022-12-23T12:22:21.112Z,61.88
2022-12-23T12:23:21.115Z,61.88
2022-12-23T12:24:21.070Z,56.25
2022-12-23T12:25:21.053Z,50.62
2022-12-23T12:26:21.044Z,39.38
2022-12-23T12:27:21.056Z,33.75
2022-12-23T12:28:21.080Z,28.12
2022-12-23T12:29:21.013Z,28.12
2022-12-23T12:30:21.011Z,39.38
2022-12-23T12:31:21.075Z,50.62
2022-12-23T12:32:20.985Z,61.88
2022-12-23T12:33:21.001Z,67.50
2022-12-23T12:34:20.965Z,61.88
2022-12-23T12:35:20.951Z,50.62
2022-12-23T12:36:20.997Z,45.00
2022-12-23T12:37:20.926Z,39.38
2022-12-23T12:38:20.914Z,39.38
2022-12-23T12:39:20.953Z,45.00
2022-12-23T12:40:20.914Z,45.00
2022-12-23T12:41:20.885Z,45.00
2022-12-23T12:42:20.906Z,39.38
2022-12-23T12:43:20.876Z,39.38
2022-12-23T12:44:20.863Z,33.75
2022-12-23T12:45:20.887Z,33.75
2022-12-23T12:46:20.898Z,28.12
2022-12-23T12:47:52.175Z,33.75
2022-12-23T12:48:21.805Z,39.38
2022-12-23T12:49:20.796Z,39.38
2022-12-23T12:50:20.789Z,39.38
2022-12-23T12:51:20.804Z,45.00
2022-12-23T12:52:20.768Z,50.62
2022-12-23T12:53:20.757Z,50.62
2022-12-23T12:54:20.755Z,45.00
2022-12-23T12:55:20.738Z,39.38
2022-12-23T12:56:20.747Z,45.00
2022-12-23T12:57:20.716Z,39.38
2022-12-23T12:58:20.703Z,28.12
2022-12-23T12:59:20.701Z,33.75
2022-12-23T13:00:20.708Z,33.75
2022-12-23T13:01:20.737Z,33.75
2022-12-23T13:02:20.689Z,22.50
2022-12-23T13:03:20.693Z,22.50
2022-12-23T13:04:20.635Z,22.50
2022-12-23T13:05:20.640Z,22.50
2022-12-23T13:06:20.619Z,22.50